sensor_id;sensor_type;location;lat;lon;timestamp;P1;durP1;ratioP1;P2;durP2;ratioP2
177;SDS011;77;48.792;9.032;2023-07-09T00:01:04;11.00;;;5.70;;
177;SDS011;77;48.792;9.032;2023-07-09T00:03:29;10.67;;;5.90;;
177;SDS011;77;48.792;9.032;2023-07-09T00:05:55;13.27;;;5.20;;
177;SDS011;77;48.792;9.032;2023-07-09T00:08:29;11.20;;;5.47;;
177;SDS011;77;48.792;9.032;2023-07-09T00:10:55;9.03;;;4.90;;
177;SDS011;77;48.792;9.032;2023-07-09T00:13:20;7.80;;;4.70;;
177;SDS011;77;48.792;9.032;2023-07-09T00:15:47;12.93;;;5.13;;
177;SDS011;77;48.792;9.032;2023-07-09T00:18:12;16.83;;;5.07;;
177;SDS011;77;48.792;9.032;2023-07-09T00:20:38;9.17;;;5.23;;
177;SDS011;77;48.792;9.032;2023-07-09T00:23:03;10.53;;;5.07;;
177;SDS011;77;48.792;9.032;2023-07-09T00:25:28;10.90;;;4.80;;
177;SDS011;77;48.792;9.032;2023-07-09T00:27:53;10.37;;;4.67;;
177;SDS011;77;48.792;9.032;2023-07-09T00:30:20;9.73;;;5.10;;
177;SDS011;77;48.792;9.032;2023-07-09T00:32:47;8.60;;;4.87;;
177;SDS011;77;48.792;9.032;2023-07-09T00:35:12;13.00;;;5.20;;
177;SDS011;77;48.792;9.032;2023-07-09T00:37:37;8.73;;;5.40;;
177;SDS011;77;48.792;9.032;2023-07-09T00:40:03;13.40;;;5.83;;
177;SDS011;77;48.792;9.032;2023-07-09T00:42:28;10.20;;;5.53;;
177;SDS011;77;48.792;9.032;2023-07-09T00:44:54;9.60;;;5.20;;
177;SDS011;77;48.792;9.032;2023-07-09T00:47:23;10.20;;;5.30;;
177;SDS011;77;48.792;9.032;2023-07-09T00:49:51;10.50;;;5.83;;
177;SDS011;77;48.792;9.032;2023-07-09T00:52:21;11.90;;;5.50;;
177;SDS011;77;48.792;9.032;2023-07-09T00:54:47;8.87;;;5.07;;
177;SDS011;77;48.792;9.032;2023-07-09T00:57:14;10.50;;;5.20;;
177;SDS011;77;48.792;9.032;2023-07-09T00:59:39;8.27;;;5.20;;
177;SDS011;77;48.792;9.032;2023-07-09T01:02:06;13.80;;;5.30;;
177;SDS011;77;48.792;9.032;2023-07-09T01:04:32;9.50;;;5.20;;
177;SDS011;77;48.792;9.032;2023-07-09T01:06:58;10.10;;;5.27;;
177;SDS011;77;48.792;9.032;2023-07-09T01:09:24;8.77;;;4.83;;
177;SDS011;77;48.792;9.032;2023-07-09T01:11:50;8.70;;;4.97;;
177;SDS011;77;48.792;9.032;2023-07-09T01:14:15;14.83;;;5.30;;
177;SDS011;77;48.792;9.032;2023-07-09T01:16:42;13.30;;;5.43;;
177;SDS011;77;48.792;9.032;2023-07-09T01:19:08;12.27;;;5.70;;
177;SDS011;77;48.792;9.032;2023-07-09T01:21:35;11.37;;;5.10;;
177;SDS011;77;48.792;9.032;2023-07-09T01:24:10;10.20;;;5.30;;
177;SDS011;77;48.792;9.032;2023-07-09T01:26:35;10.17;;;5.17;;
177;SDS011;77;48.792;9.032;2023-07-09T01:29:00;10.13;;;5.30;;
177;SDS011;77;48.792;9.032;2023-07-09T01:31:26;8.73;;;5.00;;
177;SDS011;77;48.792;9.032;2023-07-09T01:33:51;10.33;;;5.40;;
177;SDS011;77;48.792;9.032;2023-07-09T01:36:18;10.23;;;5.03;;
177;SDS011;77;48.792;9.032;2023-07-09T01:38:45;9.90;;;5.17;;
177;SDS011;77;48.792;9.032;2023-07-09T01:41:10;10.60;;;5.07;;
177;SDS011;77;48.792;9.032;2023-07-09T01:43:35;9.23;;;4.90;;
177;SDS011;77;48.792;9.032;2023-07-09T01:46:00;13.07;;;5.63;;
177;SDS011;77;48.792;9.032;2023-07-09T01:48:26;8.90;;;5.07;;
177;SDS011;77;48.792;9.032;2023-07-09T01:50:52;9.40;;;5.23;;
177;SDS011;77;48.792;9.032;2023-07-09T01:53:19;13.50;;;5.50;;
177;SDS011;77;48.792;9.032;2023-07-09T01:55:46;9.53;;;5.23;;
177;SDS011;77;48.792;9.032;2023-07-09T01:58:12;12.00;;;5.50;;
177;SDS011;77;48.792;9.032;2023-07-09T02:00:37;11.33;;;5.30;;
177;SDS011;77;48.792;9.032;2023-07-09T02:03:02;11.90;;;5.43;;
177;SDS011;77;48.792;9.032;2023-07-09T02:05:29;10.23;;;5.17;;
177;SDS011;77;48.792;9.032;2023-07-09T02:07:55;12.00;;;5.60;;
177;SDS011;77;48.792;9.032;2023-07-09T02:10:20;9.87;;;5.20;;
177;SDS011;77;48.792;9.032;2023-07-09T02:12:47;12.40;;;5.13;;
177;SDS011;77;48.792;9.032;2023-07-09T02:15:12;10.10;;;5.30;;
177;SDS011;77;48.792;9.032;2023-07-09T02:17:38;11.50;;;5.70;;
177;SDS011;77;48.792;9.032;2023-07-09T02:20:03;11.60;;;5.30;;
177;SDS011;77;48.792;9.032;2023-07-09T02:22:29;8.90;;;5.00;;
177;SDS011;77;48.792;9.032;2023-07-09T02:24:54;12.87;;;6.00;;
177;SDS011;77;48.792;9.032;2023-07-09T02:27:19;11.27;;;5.53;;
177;SDS011;77;48.792;9.032;2023-07-09T02:29:46;10.10;;;5.30;;
177;SDS011;77;48.792;9.032;2023-07-09T02:32:13;11.57;;;5.90;;
177;SDS011;77;48.792;9.032;2023-07-09T02:34:41;10.73;;;5.90;;
177;SDS011;77;48.792;9.032;2023-07-09T02:37:06;12.10;;;5.80;;
177;SDS011;77;48.792;9.032;2023-07-09T02:39:31;10.70;;;5.60;;
177;SDS011;77;48.792;9.032;2023-07-09T02:41:56;10.50;;;5.87;;
177;SDS011;77;48.792;9.032;2023-07-09T02:44:22;10.03;;;5.87;;
177;SDS011;77;48.792;9.032;2023-07-09T02:46:48;11.57;;;6.30;;
177;SDS011;77;48.792;9.032;2023-07-09T02:49:14;11.57;;;5.90;;
177;SDS011;77;48.792;9.032;2023-07-09T02:51:39;12.53;;;6.00;;
177;SDS011;77;48.792;9.032;2023-07-09T02:54:04;12.83;;;5.70;;
177;SDS011;77;48.792;9.032;2023-07-09T02:56:30;10.47;;;5.47;;
177;SDS011;77;48.792;9.032;2023-07-09T02:58:55;8.40;;;5.20;;
177;SDS011;77;48.792;9.032;2023-07-09T03:01:21;13.73;;;5.30;;
177;SDS011;77;48.792;9.032;2023-07-09T03:03:47;10.63;;;5.77;;
177;SDS011;77;48.792;9.032;2023-07-09T03:06:12;15.13;;;5.40;;
177;SDS011;77;48.792;9.032;2023-07-09T03:08:37;10.10;;;5.23;;
177;SDS011;77;48.792;9.032;2023-07-09T03:11:08;11.40;;;5.50;;
177;SDS011;77;48.792;9.032;2023-07-09T03:13:34;11.60;;;5.90;;
177;SDS011;77;48.792;9.032;2023-07-09T03:15:59;12.73;;;5.93;;
177;SDS011;77;48.792;9.032;2023-07-09T03:18:24;11.77;;;5.97;;
177;SDS011;77;48.792;9.032;2023-07-09T03:20:51;12.47;;;6.37;;
177;SDS011;77;48.792;9.032;2023-07-09T03:23:16;13.13;;;6.37;;
177;SDS011;77;48.792;9.032;2023-07-09T03:25:41;12.80;;;6.00;;
177;SDS011;77;48.792;9.032;2023-07-09T03:28:07;9.83;;;5.57;;
177;SDS011;77;48.792;9.032;2023-07-09T03:30:32;12.23;;;6.07;;
177;SDS011;77;48.792;9.032;2023-07-09T03:32:57;11.10;;;5.40;;
177;SDS011;77;48.792;9.032;2023-07-09T03:35:22;9.90;;;5.47;;
177;SDS011;77;48.792;9.032;2023-07-09T03:37:49;14.30;;;5.80;;
177;SDS011;77;48.792;9.032;2023-07-09T03:40:19;11.00;;;5.40;;
177;SDS011;77;48.792;9.032;2023-07-09T03:42:45;10.67;;;6.03;;
177;SDS011;77;48.792;9.032;2023-07-09T03:45:10;10.03;;;5.43;;
177;SDS011;77;48.792;9.032;2023-07-09T03:47:35;12.70;;;6.10;;
177;SDS011;77;48.792;9.032;2023-07-09T03:50:00;9.73;;;5.80;;
177;SDS011;77;48.792;9.032;2023-07-09T03:52:25;11.40;;;5.97;;
177;SDS011;77;48.792;9.032;2023-07-09T03:54:52;9.67;;;5.90;;
177;SDS011;77;48.792;9.032;2023-07-09T03:57:17;11.17;;;5.60;;
177;SDS011;77;48.792;9.032;2023-07-09T03:59:42;10.93;;;6.43;;
177;SDS011;77;48.792;9.032;2023-07-09T04:02:07;11.20;;;6.20;;
177;SDS011;77;48.792;9.032;2023-07-09T04:04:33;11.13;;;6.07;;
177;SDS011;77;48.792;9.032;2023-07-09T04:06:58;12.00;;;6.10;;
177;SDS011;77;48.792;9.032;2023-07-09T04:09:23;11.40;;;5.90;;
177;SDS011;77;48.792;9.032;2023-07-09T04:11:50;11.17;;;6.00;;
177;SDS011;77;48.792;9.032;2023-07-09T04:14:15;12.13;;;6.00;;
177;SDS011;77;48.792;9.032;2023-07-09T04:16:40;9.67;;;5.77;;
177;SDS011;77;48.792;9.032;2023-07-09T04:19:05;11.27;;;5.80;;
177;SDS011;77;48.792;9.032;2023-07-09T04:21:30;13.30;;;6.20;;
177;SDS011;77;48.792;9.032;2023-07-09T04:23:55;14.90;;;5.70;;
177;SDS011;77;48.792;9.032;2023-07-09T04:26:20;9.80;;;5.57;;
177;SDS011;77;48.792;9.032;2023-07-09T04:28:47;14.10;;;6.90;;
177;SDS011;77;48.792;9.032;2023-07-09T04:31:12;12.83;;;6.10;;
177;SDS011;77;48.792;9.032;2023-07-09T04:33:37;11.17;;;6.13;;
177;SDS011;77;48.792;9.032;2023-07-09T04:36:03;12.23;;;6.17;;
177;SDS011;77;48.792;9.032;2023-07-09T04:38:28;11.23;;;5.87;;
177;SDS011;77;48.792;9.032;2023-07-09T04:40:53;10.63;;;5.83;;
177;SDS011;77;48.792;9.032;2023-07-09T04:43:18;11.53;;;6.57;;
177;SDS011;77;48.792;9.032;2023-07-09T04:45:45;10.80;;;5.90;;
177;SDS011;77;48.792;9.032;2023-07-09T04:48:10;12.13;;;6.40;;
177;SDS011;77;48.792;9.032;2023-07-09T04:50:35;11.03;;;5.80;;
177;SDS011;77;48.792;9.032;2023-07-09T04:53:00;10.07;;;5.53;;
177;SDS011;77;48.792;9.032;2023-07-09T04:55:25;10.97;;;5.90;;
177;SDS011;77;48.792;9.032;2023-07-09T04:57:51;10.73;;;6.23;;
177;SDS011;77;48.792;9.032;2023-07-09T05:00:16;11.37;;;5.97;;
177;SDS011;77;48.792;9.032;2023-07-09T05:02:42;12.90;;;6.53;;
177;SDS011;77;48.792;9.032;2023-07-09T05:05:08;10.97;;;6.07;;
177;SDS011;77;48.792;9.032;2023-07-09T05:07:33;10.80;;;6.20;;
177;SDS011;77;48.792;9.032;2023-07-09T05:09:58;13.83;;;6.33;;
177;SDS011;77;48.792;9.032;2023-07-09T05:12:25;11.70;;;5.90;;
177;SDS011;77;48.792;9.032;2023-07-09T05:14:50;11.10;;;6.10;;
177;SDS011;77;48.792;9.032;2023-07-09T05:17:16;10.50;;;6.30;;
177;SDS011;77;48.792;9.032;2023-07-09T05:19:42;10.90;;;6.10;;
177;SDS011;77;48.792;9.032;2023-07-09T05:22:07;10.30;;;6.17;;
177;SDS011;77;48.792;9.032;2023-07-09T05:24:32;9.77;;;6.27;;
177;SDS011;77;48.792;9.032;2023-07-09T05:26:57;11.10;;;6.40;;
177;SDS011;77;48.792;9.032;2023-07-09T05:29:23;10.73;;;6.17;;
177;SDS011;77;48.792;9.032;2023-07-09T05:31:48;10.93;;;5.80;;
177;SDS011;77;48.792;9.032;2023-07-09T05:34:13;9.30;;;5.90;;
177;SDS011;77;48.792;9.032;2023-07-09T05:36:40;12.87;;;6.63;;
177;SDS011;77;48.792;9.032;2023-07-09T05:39:05;10.37;;;6.13;;
177;SDS011;77;48.792;9.032;2023-07-09T05:41:30;18.63;;;6.90;;
177;SDS011;77;48.792;9.032;2023-07-09T05:43:55;11.27;;;6.10;;
177;SDS011;77;48.792;9.032;2023-07-09T05:46:21;11.70;;;6.30;;
177;SDS011;77;48.792;9.032;2023-07-09T05:48:46;11.53;;;6.80;;
177;SDS011;77;48.792;9.032;2023-07-09T05:51:11;11.83;;;6.67;;
177;SDS011;77;48.792;9.032;2023-07-09T05:53:38;12.23;;;6.67;;
177;SDS011;77;48.792;9.032;2023-07-09T05:56:03;12.93;;;6.03;;
177;SDS011;77;48.792;9.032;2023-07-09T05:58:28;16.50;;;6.77;;
177;SDS011;77;48.792;9.032;2023-07-09T06:00:54;15.73;;;6.63;;
177;SDS011;77;48.792;9.032;2023-07-09T06:03:19;11.43;;;6.53;;
177;SDS011;77;48.792;9.032;2023-07-09T06:05:45;14.03;;;6.47;;
177;SDS011;77;48.792;9.032;2023-07-09T06:08:10;13.00;;;6.13;;
177;SDS011;77;48.792;9.032;2023-07-09T06:10:36;10.80;;;6.20;;
177;SDS011;77;48.792;9.032;2023-07-09T06:13:01;10.43;;;6.40;;
177;SDS011;77;48.792;9.032;2023-07-09T06:15:27;9.43;;;6.20;;
177;SDS011;77;48.792;9.032;2023-07-09T06:17:52;17.00;;;7.00;;
177;SDS011;77;48.792;9.032;2023-07-09T06:20:17;9.87;;;5.93;;
177;SDS011;77;48.792;9.032;2023-07-09T06:22:42;10.77;;;6.30;;
177;SDS011;77;48.792;9.032;2023-07-09T06:25:07;12.53;;;6.60;;
177;SDS011;77;48.792;9.032;2023-07-09T06:27:34;11.10;;;6.00;;
177;SDS011;77;48.792;9.032;2023-07-09T06:29:59;10.97;;;6.10;;
177;SDS011;77;48.792;9.032;2023-07-09T06:32:24;11.10;;;6.27;;
177;SDS011;77;48.792;9.032;2023-07-09T06:34:50;11.67;;;6.20;;
177;SDS011;77;48.792;9.032;2023-07-09T06:37:15;12.90;;;6.33;;
177;SDS011;77;48.792;9.032;2023-07-09T06:39:40;10.40;;;5.73;;
177;SDS011;77;48.792;9.032;2023-07-09T06:42:05;10.60;;;6.23;;
177;SDS011;77;48.792;9.032;2023-07-09T06:44:32;11.70;;;6.40;;
177;SDS011;77;48.792;9.032;2023-07-09T06:46:57;10.50;;;6.20;;
177;SDS011;77;48.792;9.032;2023-07-09T06:49:22;10.67;;;6.07;;
177;SDS011;77;48.792;9.032;2023-07-09T06:51:47;10.67;;;6.67;;
177;SDS011;77;48.792;9.032;2023-07-09T06:54:13;11.47;;;6.37;;
177;SDS011;77;48.792;9.032;2023-07-09T06:56:38;15.10;;;5.80;;
177;SDS011;77;48.792;9.032;2023-07-09T06:59:03;12.30;;;5.73;;
177;SDS011;77;48.792;9.032;2023-07-09T07:01:30;12.33;;;6.30;;
177;SDS011;77;48.792;9.032;2023-07-09T07:03:55;12.83;;;6.00;;
177;SDS011;77;48.792;9.032;2023-07-09T07:06:20;9.80;;;5.90;;
177;SDS011;77;48.792;9.032;2023-07-09T07:08:45;9.80;;;5.90;;
177;SDS011;77;48.792;9.032;2023-07-09T07:11:11;10.13;;;5.90;;
177;SDS011;77;48.792;9.032;2023-07-09T07:13:36;10.47;;;5.70;;
177;SDS011;77;48.792;9.032;2023-07-09T07:16:02;10.83;;;5.67;;
177;SDS011;77;48.792;9.032;2023-07-09T07:18:29;9.50;;;5.60;;
177;SDS011;77;48.792;9.032;2023-07-09T07:20:54;12.60;;;5.70;;
177;SDS011;77;48.792;9.032;2023-07-09T07:23:19;13.47;;;6.33;;
177;SDS011;77;48.792;9.032;2023-07-09T07:25:44;14.63;;;5.83;;
177;SDS011;77;48.792;9.032;2023-07-09T07:28:10;11.17;;;6.00;;
177;SDS011;77;48.792;9.032;2023-07-09T07:30:35;11.47;;;5.67;;
177;SDS011;77;48.792;9.032;2023-07-09T07:33:00;11.97;;;5.80;;
177;SDS011;77;48.792;9.032;2023-07-09T07:35:27;15.27;;;5.60;;
177;SDS011;77;48.792;9.032;2023-07-09T07:37:52;11.63;;;5.83;;
177;SDS011;77;48.792;9.032;2023-07-09T07:40:17;15.20;;;5.60;;
177;SDS011;77;48.792;9.032;2023-07-09T07:42:42;12.23;;;5.57;;
177;SDS011;77;48.792;9.032;2023-07-09T07:45:08;11.80;;;5.07;;
177;SDS011;77;48.792;9.032;2023-07-09T07:47:33;13.77;;;5.40;;
177;SDS011;77;48.792;9.032;2023-07-09T07:49:58;8.27;;;5.10;;
177;SDS011;77;48.792;9.032;2023-07-09T07:52:25;10.07;;;5.63;;
177;SDS011;77;48.792;9.032;2023-07-09T07:54:50;10.90;;;5.20;;
177;SDS011;77;48.792;9.032;2023-07-09T07:57:15;10.00;;;5.07;;
177;SDS011;77;48.792;9.032;2023-07-09T07:59:40;8.80;;;4.90;;
177;SDS011;77;48.792;9.032;2023-07-09T08:02:06;12.40;;;5.43;;
177;SDS011;77;48.792;9.032;2023-07-09T08:04:32;10.83;;;5.73;;
177;SDS011;77;48.792;9.032;2023-07-09T08:06:57;9.50;;;5.13;;
177;SDS011;77;48.792;9.032;2023-07-09T08:09:23;12.50;;;5.77;;
177;SDS011;77;48.792;9.032;2023-07-09T08:11:49;8.47;;;4.80;;
177;SDS011;77;48.792;9.032;2023-07-09T08:14:14;9.60;;;4.83;;
177;SDS011;77;48.792;9.032;2023-07-09T08:16:39;9.83;;;4.87;;
177;SDS011;77;48.792;9.032;2023-07-09T08:19:04;9.00;;;5.30;;
177;SDS011;77;48.792;9.032;2023-07-09T08:21:30;12.67;;;5.43;;
177;SDS011;77;48.792;9.032;2023-07-09T08:23:55;9.90;;;5.60;;
177;SDS011;77;48.792;9.032;2023-07-09T08:26:21;12.37;;;5.37;;
177;SDS011;77;48.792;9.032;2023-07-09T08:28:46;8.97;;;5.40;;
177;SDS011;77;48.792;9.032;2023-07-09T08:31:12;9.37;;;5.30;;
177;SDS011;77;48.792;9.032;2023-07-09T08:33:37;11.83;;;5.33;;
177;SDS011;77;48.792;9.032;2023-07-09T08:36:02;9.07;;;5.00;;
177;SDS011;77;48.792;9.032;2023-07-09T08:38:27;12.93;;;5.10;;
177;SDS011;77;48.792;9.032;2023-07-09T08:40:54;10.00;;;5.60;;
177;SDS011;77;48.792;9.032;2023-07-09T08:43:24;9.00;;;5.10;;
177;SDS011;77;48.792;9.032;2023-07-09T08:45:54;11.00;;;4.97;;
177;SDS011;77;48.792;9.032;2023-07-09T08:48:29;10.30;;;5.30;;
177;SDS011;77;48.792;9.032;2023-07-09T08:50:56;9.03;;;5.20;;
177;SDS011;77;48.792;9.032;2023-07-09T08:53:25;11.70;;;5.57;;
177;SDS011;77;48.792;9.032;2023-07-09T08:55:52;7.93;;;5.17;;
177;SDS011;77;48.792;9.032;2023-07-09T08:58:20;8.40;;;5.10;;
177;SDS011;77;48.792;9.032;2023-07-09T09:00:49;12.63;;;5.40;;
177;SDS011;77;48.792;9.032;2023-07-09T09:03:20;9.60;;;5.20;;
177;SDS011;77;48.792;9.032;2023-07-09T09:05:51;9.00;;;5.10;;
177;SDS011;77;48.792;9.032;2023-07-09T09:08:20;9.53;;;5.47;;
177;SDS011;77;48.792;9.032;2023-07-09T09:10:54;9.97;;;5.23;;
177;SDS011;77;48.792;9.032;2023-07-09T09:13:22;11.93;;;5.10;;
177;SDS011;77;48.792;9.032;2023-07-09T09:15:50;8.60;;;4.87;;
177;SDS011;77;48.792;9.032;2023-07-09T09:18:19;10.23;;;5.50;;
177;SDS011;77;48.792;9.032;2023-07-09T09:20:45;9.87;;;5.30;;
177;SDS011;77;48.792;9.032;2023-07-09T09:23:12;9.10;;;5.00;;
177;SDS011;77;48.792;9.032;2023-07-09T09:25:39;13.03;;;5.20;;
177;SDS011;77;48.792;9.032;2023-07-09T09:28:05;8.20;;;5.27;;
177;SDS011;77;48.792;9.032;2023-07-09T09:30:31;9.67;;;5.50;;
177;SDS011;77;48.792;9.032;2023-07-09T09:32:58;7.00;;;5.10;;
177;SDS011;77;48.792;9.032;2023-07-09T09:35:27;12.20;;;5.67;;
177;SDS011;77;48.792;9.032;2023-07-09T09:37:53;9.17;;;5.40;;
177;SDS011;77;48.792;9.032;2023-07-09T09:40:18;8.90;;;5.23;;
177;SDS011;77;48.792;9.032;2023-07-09T09:42:44;9.20;;;5.20;;
177;SDS011;77;48.792;9.032;2023-07-09T09:45:10;10.70;;;5.40;;
177;SDS011;77;48.792;9.032;2023-07-09T09:47:35;11.83;;;5.77;;
177;SDS011;77;48.792;9.032;2023-07-09T09:50:02;11.10;;;5.33;;
177;SDS011;77;48.792;9.032;2023-07-09T09:52:29;31.43;;;5.43;;
177;SDS011;77;48.792;9.032;2023-07-09T09:54:56;9.73;;;5.20;;
177;SDS011;77;48.792;9.032;2023-07-09T09:57:27;10.33;;;5.07;;
177;SDS011;77;48.792;9.032;2023-07-09T09:59:53;7.50;;;5.00;;
177;SDS011;77;48.792;9.032;2023-07-09T10:02:19;11.40;;;5.43;;
177;SDS011;77;48.792;9.032;2023-07-09T10:04:45;7.53;;;4.93;;
177;SDS011;77;48.792;9.032;2023-07-09T10:07:14;8.90;;;4.77;;
177;SDS011;77;48.792;9.032;2023-07-09T10:09:43;8.43;;;5.20;;
177;SDS011;77;48.792;9.032;2023-07-09T10:12:13;11.10;;;5.53;;
177;SDS011;77;48.792;9.032;2023-07-09T10:14:41;7.83;;;5.20;;
177;SDS011;77;48.792;9.032;2023-07-09T10:17:12;7.77;;;5.10;;
177;SDS011;77;48.792;9.032;2023-07-09T10:19:42;8.10;;;5.30;;
177;SDS011;77;48.792;9.032;2023-07-09T10:22:11;8.00;;;5.10;;
177;SDS011;77;48.792;9.032;2023-07-09T10:24:44;10.00;;;4.90;;
177;SDS011;77;48.792;9.032;2023-07-09T10:27:13;7.67;;;4.90;;
177;SDS011;77;48.792;9.032;2023-07-09T10:29:51;8.77;;;5.13;;
177;SDS011;77;48.792;9.032;2023-07-09T10:32:22;8.13;;;5.20;;
177;SDS011;77;48.792;9.032;2023-07-09T10:34:50;10.20;;;5.00;;
177;SDS011;77;48.792;9.032;2023-07-09T10:37:31;13.23;;;4.93;;
177;SDS011;77;48.792;9.032;2023-07-09T10:40:02;10.10;;;4.67;;
177;SDS011;77;48.792;9.032;2023-07-09T10:42:29;8.00;;;5.07;;
177;SDS011;77;48.792;9.032;2023-07-09T10:44:56;10.17;;;5.30;;
177;SDS011;77;48.792;9.032;2023-07-09T10:47:24;9.00;;;5.03;;
177;SDS011;77;48.792;9.032;2023-07-09T10:49:51;8.53;;;4.47;;
177;SDS011;77;48.792;9.032;2023-07-09T10:52:25;7.80;;;4.40;;
177;SDS011;77;48.792;9.032;2023-07-09T10:54:54;9.70;;;4.40;;
177;SDS011;77;48.792;9.032;2023-07-09T10:57:25;9.13;;;5.00;;
177;SDS011;77;48.792;9.032;2023-07-09T10:59:52;9.77;;;5.30;;
177;SDS011;77;48.792;9.032;2023-07-09T11:02:19;9.47;;;4.73;;
177;SDS011;77;48.792;9.032;2023-07-09T11:04:47;9.30;;;5.10;;
177;SDS011;77;48.792;9.032;2023-07-09T11:07:14;6.70;;;4.90;;
177;SDS011;77;48.792;9.032;2023-07-09T11:09:41;9.93;;;5.00;;
177;SDS011;77;48.792;9.032;2023-07-09T11:12:09;9.03;;;5.30;;
177;SDS011;77;48.792;9.032;2023-07-09T11:14:37;8.80;;;5.07;;
177;SDS011;77;48.792;9.032;2023-07-09T11:17:04;8.60;;;4.67;;
177;SDS011;77;48.792;9.032;2023-07-09T11:19:30;8.63;;;5.00;;
177;SDS011;77;48.792;9.032;2023-07-09T11:21:57;10.73;;;4.83;;
177;SDS011;77;48.792;9.032;2023-07-09T11:24:29;9.13;;;5.40;;
177;SDS011;77;48.792;9.032;2023-07-09T11:26:55;8.40;;;5.33;;
177;SDS011;77;48.792;9.032;2023-07-09T11:29:23;10.73;;;5.80;;
177;SDS011;77;48.792;9.032;2023-07-09T11:31:49;7.80;;;4.93;;
177;SDS011;77;48.792;9.032;2023-07-09T11:34:16;13.30;;;5.00;;
177;SDS011;77;48.792;9.032;2023-07-09T11:36:47;8.43;;;4.70;;
177;SDS011;77;48.792;9.032;2023-07-09T11:39:17;10.93;;;5.37;;
177;SDS011;77;48.792;9.032;2023-07-09T11:41:44;9.80;;;5.10;;
177;SDS011;77;48.792;9.032;2023-07-09T11:44:12;9.87;;;4.57;;
177;SDS011;77;48.792;9.032;2023-07-09T11:46:42;10.37;;;5.30;;
177;SDS011;77;48.792;9.032;2023-07-09T11:49:13;8.30;;;4.60;;
177;SDS011;77;48.792;9.032;2023-07-09T11:51:40;7.13;;;4.70;;
177;SDS011;77;48.792;9.032;2023-07-09T11:54:07;7.57;;;4.50;;
177;SDS011;77;48.792;9.032;2023-07-09T11:56:35;8.50;;;4.70;;
177;SDS011;77;48.792;9.032;2023-07-09T11:59:01;14.57;;;5.10;;
177;SDS011;77;48.792;9.032;2023-07-09T12:01:28;7.83;;;4.50;;
177;SDS011;77;48.792;9.032;2023-07-09T12:03:55;8.50;;;4.33;;
177;SDS011;77;48.792;9.032;2023-07-09T12:06:22;8.50;;;4.67;;
177;SDS011;77;48.792;9.032;2023-07-09T12:08:48;10.83;;;4.60;;
177;SDS011;77;48.792;9.032;2023-07-09T12:11:21;9.80;;;4.80;;
177;SDS011;77;48.792;9.032;2023-07-09T12:13:46;7.50;;;4.23;;
177;SDS011;77;48.792;9.032;2023-07-09T12:16:19;10.37;;;4.33;;
177;SDS011;77;48.792;9.032;2023-07-09T12:18:45;11.03;;;4.80;;
177;SDS011;77;48.792;9.032;2023-07-09T12:21:10;7.27;;;4.50;;
177;SDS011;77;48.792;9.032;2023-07-09T12:23:37;7.77;;;4.57;;
177;SDS011;77;48.792;9.032;2023-07-09T12:26:05;9.20;;;4.67;;
177;SDS011;77;48.792;9.032;2023-07-09T12:28:31;9.53;;;5.17;;
177;SDS011;77;48.792;9.032;2023-07-09T12:30:56;7.10;;;4.23;;
177;SDS011;77;48.792;9.032;2023-07-09T12:33:22;11.70;;;4.67;;
177;SDS011;77;48.792;9.032;2023-07-09T12:35:48;11.80;;;4.60;;
177;SDS011;77;48.792;9.032;2023-07-09T12:38:17;8.50;;;4.80;;
177;SDS011;77;48.792;9.032;2023-07-09T12:40:44;8.83;;;4.97;;
177;SDS011;77;48.792;9.032;2023-07-09T12:43:10;11.43;;;4.63;;
177;SDS011;77;48.792;9.032;2023-07-09T12:45:36;7.30;;;4.50;;
177;SDS011;77;48.792;9.032;2023-07-09T12:48:01;9.53;;;4.40;;
177;SDS011;77;48.792;9.032;2023-07-09T12:50:27;7.73;;;4.57;;
177;SDS011;77;48.792;9.032;2023-07-09T12:52:54;17.20;;;5.13;;
177;SDS011;77;48.792;9.032;2023-07-09T12:55:21;9.90;;;4.80;;
177;SDS011;77;48.792;9.032;2023-07-09T12:57:47;8.57;;;4.60;;
177;SDS011;77;48.792;9.032;2023-07-09T13:00:14;8.90;;;5.00;;
177;SDS011;77;48.792;9.032;2023-07-09T13:02:39;9.57;;;4.50;;
177;SDS011;77;48.792;9.032;2023-07-09T13:05:06;9.73;;;4.90;;
177;SDS011;77;48.792;9.032;2023-07-09T13:07:32;8.33;;;5.03;;
177;SDS011;77;48.792;9.032;2023-07-09T13:09:57;9.83;;;4.90;;
177;SDS011;77;48.792;9.032;2023-07-09T13:17:41;9.23;;;5.07;;
177;SDS011;77;48.792;9.032;2023-07-09T13:20:07;8.17;;;4.60;;
177;SDS011;77;48.792;9.032;2023-07-09T13:22:32;14.13;;;5.20;;
177;SDS011;77;48.792;9.032;2023-07-09T13:24:57;7.17;;;4.63;;
177;SDS011;77;48.792;9.032;2023-07-09T13:27:22;10.87;;;5.10;;
177;SDS011;77;48.792;9.032;2023-07-09T13:29:48;9.53;;;4.80;;
177;SDS011;77;48.792;9.032;2023-07-09T13:32:14;10.30;;;5.03;;
177;SDS011;77;48.792;9.032;2023-07-09T13:34:41;14.50;;;5.23;;
177;SDS011;77;48.792;9.032;2023-07-09T13:37:08;8.87;;;4.97;;
177;SDS011;77;48.792;9.032;2023-07-09T13:39:34;11.30;;;4.83;;
177;SDS011;77;48.792;9.032;2023-07-09T13:41:59;13.00;;;4.80;;
177;SDS011;77;48.792;9.032;2023-07-09T13:44:26;9.53;;;5.03;;
177;SDS011;77;48.792;9.032;2023-07-09T13:46:51;9.60;;;4.93;;
177;SDS011;77;48.792;9.032;2023-07-09T13:49:18;8.77;;;4.70;;
177;SDS011;77;48.792;9.032;2023-07-09T13:51:45;7.77;;;4.40;;
177;SDS011;77;48.792;9.032;2023-07-09T13:54:13;9.37;;;4.40;;
177;SDS011;77;48.792;9.032;2023-07-09T13:56:39;6.00;;;3.90;;
177;SDS011;77;48.792;9.032;2023-07-09T13:59:05;7.20;;;4.13;;
177;SDS011;77;48.792;9.032;2023-07-09T14:01:30;7.23;;;4.50;;
177;SDS011;77;48.792;9.032;2023-07-09T14:03:56;6.93;;;4.50;;
177;SDS011;77;48.792;9.032;2023-07-09T14:06:21;9.20;;;4.30;;
177;SDS011;77;48.792;9.032;2023-07-09T14:08:48;8.30;;;4.10;;
177;SDS011;77;48.792;9.032;2023-07-09T14:11:14;9.67;;;4.27;;
177;SDS011;77;48.792;9.032;2023-07-09T14:13:40;7.70;;;4.33;;
177;SDS011;77;48.792;9.032;2023-07-09T14:16:08;8.13;;;4.40;;
177;SDS011;77;48.792;9.032;2023-07-09T14:18:33;8.07;;;4.50;;
177;SDS011;77;48.792;9.032;2023-07-09T14:20:59;8.07;;;4.70;;
177;SDS011;77;48.792;9.032;2023-07-09T14:23:24;13.33;;;4.53;;
177;SDS011;77;48.792;9.032;2023-07-09T14:25:51;10.40;;;4.47;;
177;SDS011;77;48.792;9.032;2023-07-09T14:28:17;9.10;;;4.17;;
177;SDS011;77;48.792;9.032;2023-07-09T14:30:42;11.40;;;4.53;;
177;SDS011;77;48.792;9.032;2023-07-09T14:33:08;8.97;;;4.53;;
177;SDS011;77;48.792;9.032;2023-07-09T14:35:36;8.90;;;4.30;;
177;SDS011;77;48.792;9.032;2023-07-09T14:38:01;7.07;;;4.60;;
177;SDS011;77;48.792;9.032;2023-07-09T14:40:31;12.83;;;4.20;;
177;SDS011;77;48.792;9.032;2023-07-09T14:42:57;7.90;;;4.63;;
177;SDS011;77;48.792;9.032;2023-07-09T14:45:23;6.40;;;4.10;;
177;SDS011;77;48.792;9.032;2023-07-09T14:47:48;6.30;;;4.17;;
177;SDS011;77;48.792;9.032;2023-07-09T14:50:14;11.83;;;4.20;;
177;SDS011;77;48.792;9.032;2023-07-09T14:52:40;7.40;;;4.10;;
177;SDS011;77;48.792;9.032;2023-07-09T14:55:05;7.13;;;4.10;;
177;SDS011;77;48.792;9.032;2023-07-09T14:57:31;10.30;;;4.60;;
177;SDS011;77;48.792;9.032;2023-07-09T14:59:57;10.40;;;4.33;;
177;SDS011;77;48.792;9.032;2023-07-09T15:02:23;10.10;;;5.03;;
177;SDS011;77;48.792;9.032;2023-07-09T15:04:49;9.07;;;4.37;;
177;SDS011;77;48.792;9.032;2023-07-09T15:07:15;9.20;;;4.53;;
177;SDS011;77;48.792;9.032;2023-07-09T15:09:40;7.20;;;4.40;;
177;SDS011;77;48.792;9.032;2023-07-09T15:12:08;7.33;;;4.47;;
177;SDS011;77;48.792;9.032;2023-07-09T15:14:37;11.30;;;4.43;;
177;SDS011;77;48.792;9.032;2023-07-09T15:17:03;7.77;;;4.83;;
177;SDS011;77;48.792;9.032;2023-07-09T15:19:28;7.17;;;4.50;;
177;SDS011;77;48.792;9.032;2023-07-09T15:21:54;9.17;;;4.60;;
177;SDS011;77;48.792;9.032;2023-07-09T15:24:20;8.43;;;4.60;;
177;SDS011;77;48.792;9.032;2023-07-09T15:26:46;7.43;;;4.50;;
177;SDS011;77;48.792;9.032;2023-07-09T15:29:13;7.50;;;4.40;;
177;SDS011;77;48.792;9.032;2023-07-09T15:31:38;8.40;;;4.30;;
177;SDS011;77;48.792;9.032;2023-07-09T15:34:05;9.47;;;4.33;;
177;SDS011;77;48.792;9.032;2023-07-09T15:36:30;9.50;;;4.50;;
177;SDS011;77;48.792;9.032;2023-07-09T15:38:55;7.03;;;4.10;;
177;SDS011;77;48.792;9.032;2023-07-09T15:41:20;6.80;;;4.53;;
177;SDS011;77;48.792;9.032;2023-07-09T15:43:45;7.37;;;4.27;;
177;SDS011;77;48.792;9.032;2023-07-09T15:46:11;8.53;;;4.43;;
177;SDS011;77;48.792;9.032;2023-07-09T15:48:40;8.33;;;4.30;;
177;SDS011;77;48.792;9.032;2023-07-09T15:51:07;8.20;;;4.70;;